Time;durP1;ratioP1;P1;durP2;ratioP2;P2;SDS_P1;SDS_P2;PMS_P1;PMS_P2;Temp;Humidity;BMP_temperature;BMP_pressure;BME280_temperature;BME280_humidity;BME280_pressure;Samples;Min_cycle;Max_cycle;Signal;HPM_P1;HPM_P2
2023/06/07 00:00:09;;;;;;;11.90;7.18;;;;;;;16.60;100.00;101933.47;5268616;28;20544;-69
2023/06/07 00:02:41;;;;;;;12.52;6.55;;;;;;;16.60;100.00;101941.53;5268573;28;20392;-69
2023/06/07 00:05:12;;;;;;;13.80;6.65;;;;;;;16.50;100.00;101932.69;5270759;28;20515;-69
2023/06/07 00:07:44;;;;;;;13.20;6.50;;;;;;;16.54;100.00;101930.53;5270336;28;20031;-69
2023/06/07 00:10:15;;;;;;;9.98;6.15;;;;;;;16.37;100.00;101933.06;5274733;28;20455;-69
2023/06/07 00:12:46;;;;;;;14.00;6.85;;;;;;;16.34;100.00;101935.22;5270550;28;20118;-69
2023/06/07 00:15:18;;;;;;;12.05;6.35;;;;;;;16.38;100.00;101939.31;5266079;28;20640;-69
2023/06/07 00:17:49;;;;;;;14.15;6.65;;;;;;;16.33;100.00;101936.25;5266045;28;20498;-70
2023/06/07 00:20:20;;;;;;;11.55;6.88;;;;;;;16.29;100.00;101938.41;5265684;28;20028;-70
2023/06/07 00:22:55;;;;;;;13.52;7.03;;;;;;;16.25;100.00;101935.16;5269478;28;20040;-70
2023/06/07 00:25:26;;;;;;;12.35;7.10;;;;;;;16.23;100.00;101942.56;5268036;28;20070;-69
2023/06/07 00:27:57;;;;;;;12.32;7.18;;;;;;;16.26;100.00;101944.91;5266282;28;20024;-69
2023/06/07 00:30:29;;;;;;;11.68;6.60;;;;;;;16.16;100.00;101938.75;5268037;28;20084;-69
2023/06/07 00:33:00;;;;;;;16.10;7.05;;;;;;;16.16;100.00;101938.75;5270988;28;20599;-68
2023/06/07 00:35:31;;;;;;;11.65;7.15;;;;;;;16.17;100.00;101934.25;5268838;28;20463;-70
2023/06/07 00:38:05;;;;;;;10.70;6.63;;;;;;;16.13;100.00;101944.47;5271850;28;20032;-69
2023/06/07 00:40:36;;;;;;;10.95;6.82;;;;;;;16.00;100.00;101939.44;5271745;28;20506;-69
2023/06/07 00:43:07;;;;;;;14.05;6.80;;;;;;;16.06;100.00;101938.00;5272018;28;20026;-70
2023/06/07 00:45:39;;;;;;;11.10;6.88;;;;;;;15.94;100.00;101939.22;5266543;28;20058;-69
2023/06/07 00:48:11;;;;;;;12.15;6.55;;;;;;;15.99;100.00;101931.53;5266294;28;20028;-69
2023/06/07 00:50:44;;;;;;;10.63;6.85;;;;;;;15.98;100.00;101937.91;5276947;28;20634;-69
2023/06/07 00:53:16;;;;;;;14.93;7.40;;;;;;;15.95;100.00;101930.13;5265205;28;20407;-69
2023/06/07 00:55:48;;;;;;;12.25;7.00;;;;;;;15.85;100.00;101930.19;5271396;28;20028;-70
2023/06/07 00:58:20;;;;;;;9.15;6.53;;;;;;;15.84;100.00;101928.50;5268338;28;20059;-69
2023/06/07 01:00:51;;;;;;;11.38;7.20;;;;;;;15.85;100.00;101931.03;5267137;28;20055;-68
2023/06/07 01:03:23;;;;;;;11.48;6.75;;;;;;;15.79;100.00;101936.16;5268166;28;20282;-69
2023/06/07 01:05:54;;;;;;;16.65;8.00;;;;;;;15.81;100.00;101926.97;5279726;28;20147;-69
2023/06/07 01:08:26;;;;;;;15.02;7.60;;;;;;;15.92;100.00;101923.22;5266523;28;20147;-69
2023/06/07 01:11:00;;;;;;;11.63;6.88;;;;;;;15.74;100.00;101931.19;5264434;28;20039;-69
2023/06/07 01:13:32;;;;;;;14.52;6.93;;;;;;;15.71;100.00;101936.91;5264857;28;20675;-70
2023/06/07 01:16:04;;;;;;;12.98;7.35;;;;;;;15.72;100.00;101933.19;5266658;28;20025;-69
2023/06/07 01:18:36;;;;;;;11.15;7.35;;;;;;;15.72;100.00;101938.56;5272549;28;20640;-69
2023/06/07 01:21:12;;;;;;;12.70;6.88;;;;;;;15.59;100.00;101932.72;5261835;28;20032;-70
2023/06/07 01:23:44;;;;;;;12.07;7.05;;;;;;;15.62;100.00;101930.56;5264678;28;20024;-69
2023/06/07 01:26:16;;;;;;;14.55;6.95;;;;;;;15.52;100.00;101928.94;5265099;28;20025;-70
2023/06/07 01:28:47;;;;;;;10.38;6.75;;;;;;;15.56;100.00;101927.63;5265198;28;20391;-70
2023/06/07 01:31:22;;;;;;;14.68;7.25;;;;;;;15.52;100.00;101921.69;5269097;28;20358;-70
2023/06/07 01:33:53;;;;;;;14.30;7.32;;;;;;;15.41;100.00;101913.81;5275896;28;20123;-70
2023/06/07 01:36:26;;;;;;;11.88;7.13;;;;;;;15.42;100.00;101916.34;5269389;28;20036;-70
2023/06/07 01:39:00;;;;;;;12.82;7.10;;;;;;;15.29;100.00;101918.53;5268299;28;20126;-71
2023/06/07 01:41:32;;;;;;;13.65;7.65;;;;;;;15.34;100.00;101916.25;5269150;28;20584;-71
2023/06/07 01:44:03;;;;;;;12.77;7.00;;;;;;;15.30;100.00;101918.41;5269551;28;20029;-70
2023/06/07 01:46:34;;;;;;;13.82;7.35;;;;;;;15.28;100.00;101924.91;5276107;28;20630;-70
2023/06/07 01:49:06;;;;;;;15.43;7.38;;;;;;;15.23;100.00;101916.44;5266289;28;20021;-70
2023/06/07 01:51:37;;;;;;;14.25;7.18;;;;;;;15.19;100.00;101912.34;5265950;28;20638;-71
2023/06/07 01:54:09;;;;;;;10.93;7.10;;;;;;;15.21;100.00;101913.88;5263915;28;20024;-70
2023/06/07 01:56:49;;;;;;;14.30;7.13;;;;;;;15.19;100.00;101906.97;5267454;28;20078;-69
2023/06/07 01:59:45;;;;;;;10.25;7.18;;;;;;;15.22;100.00;101918.28;5269100;28;20027;-70
2023/06/07 02:02:29;;;;;;;12.70;7.03;;;;;;;15.13;100.00;101908.41;5263483;28;20029;-69
2023/06/07 02:05:07;;;;;;;12.30;7.35;;;;;;;15.14;100.00;101910.09;5265342;28;20505;-70
2023/06/07 02:07:55;;;;;;;14.25;7.95;;;;;;;15.06;100.00;101909.97;5265982;28;20047;-70
2023/06/07 02:10:29;;;;;;;12.95;7.35;;;;;;;15.03;100.00;101905.75;5266127;28;20539;-70
2023/06/07 02:13:02;;;;;;;12.90;7.47;;;;;;;14.93;100.00;101904.94;5263277;28;20234;-70
2023/06/07 02:15:33;;;;;;;12.32;7.15;;;;;;;14.89;100.00;101907.06;5269195;28;20039;-70
2023/06/07 02:18:04;;;;;;;13.30;8.88;;;;;;;14.93;100.00;101919.19;5263162;28;20187;-70
2023/06/07 02:20:36;;;;;;;12.95;7.82;;;;;;;14.83;100.00;101915.72;5264647;28;20032;-70
2023/06/07 02:23:07;;;;;;;13.43;7.75;;;;;;;14.87;100.00;101911.72;5267233;28;20070;-70
2023/06/07 02:25:39;;;;;;;10.50;7.40;;;;;;;14.82;100.00;101907.78;5265724;28;20304;-70
2023/06/07 02:28:10;;;;;;;13.60;7.80;;;;;;;14.74;100.00;101914.72;5267376;28;20020;-71
2023/06/07 02:30:41;;;;;;;15.93;8.35;;;;;;;14.71;100.00;101911.50;5258686;28;21138;-70
2023/06/07 02:33:13;;;;;;;13.93;8.50;;;;;;;14.71;100.00;101922.22;5275415;28;20032;-69
2023/06/07 02:35:45;;;;;;;15.27;8.00;;;;;;;14.67;100.00;101919.00;5271639;28;20078;-69
2023/06/07 02:38:16;;;;;;;16.17;8.70;;;;;;;14.59;100.00;101918.00;5262978;28;20098;-69
2023/06/07 02:40:47;;;;;;;11.32;8.23;;;;;;;14.61;100.00;101916.03;5276236;28;20178;-69
2023/06/07 02:43:18;;;;;;;16.70;8.25;;;;;;;14.52;100.00;101913.16;5268515;28;20035;-69
2023/06/07 02:45:50;;;;;;;16.48;9.35;;;;;;;14.46;100.00;101912.88;5267226;28;20357;-69
2023/06/07 02:48:21;;;;;;;11.95;8.05;;;;;;;14.43;100.00;101911.34;5265294;28;20179;-69
2023/06/07 02:50:53;;;;;;;16.33;8.52;;;;;;;14.44;100.00;101912.16;5268389;28;20081;-69
2023/06/07 02:53:24;;;;;;;13.30;8.10;;;;;;;14.48;100.00;101909.06;5267845;28;20322;-69
2023/06/07 02:55:56;;;;;;;13.27;8.43;;;;;;;14.39;100.00;101907.22;5273466;28;20491;-68
2023/06/07 02:58:27;;;;;;;14.60;8.43;;;;;;;14.40;100.00;101913.44;5271674;28;20043;-69
2023/06/07 03:01:00;;;;;;;13.80;8.10;;;;;;;14.45;100.00;101914.72;5270252;28;20028;-69
2023/06/07 03:03:31;;;;;;;13.02;8.43;;;;;;;14.44;100.00;101913.00;5266559;28;20561;-69
2023/06/07 03:06:04;;;;;;;16.90;8.73;;;;;;;14.40;100.00;101914.28;5273632;28;20027;-68
2023/06/07 03:08:36;;;;;;;15.93;8.70;;;;;;;14.30;100.00;101916.97;5272216;28;20291;-69
2023/06/07 03:11:07;;;;;;;14.05;8.32;;;;;;;14.30;100.00;101913.44;5271005;28;20039;-69
2023/06/07 03:13:39;;;;;;;14.07;8.40;;;;;;;14.30;100.00;101913.44;5276280;28;20040;-69
2023/06/07 03:16:10;;;;;;;19.55;8.85;;;;;;;14.35;100.00;101912.03;5274970;28;20135;-69
2023/06/07 03:18:41;;;;;;;14.82;8.98;;;;;;;14.22;100.00;101915.97;5267924;28;20542;-69
2023/06/07 03:21:13;;;;;;;13.65;8.52;;;;;;;14.23;100.00;101920.34;5275334;28;20111;-70
2023/06/07 03:23:44;;;;;;;17.08;9.32;;;;;;;14.12;100.00;101916.81;5264161;28;20036;-70
2023/06/07 03:26:16;;;;;;;15.75;8.70;;;;;;;14.09;100.00;101916.25;5278324;28;20024;-69
2023/06/07 03:28:48;;;;;;;19.05;8.95;;;;;;;14.06;100.00;101916.50;5275422;28;20024;-70
2023/06/07 03:31:19;;;;;;;12.57;8.48;;;;;;;14.06;100.00;101921.88;5269300;28;20130;-69
2023/06/07 03:33:51;;;;;;;16.60;12.27;;;;;;;14.20;100.00;101924.19;5270463;28;20100;-70
2023/06/07 03:36:24;;;;;;;16.20;9.38;;;;;;;14.09;100.00;101922.44;5270075;28;20462;-69
2023/06/07 03:38:57;;;;;;;16.25;8.52;;;;;;;14.10;100.00;101920.63;5280715;28;20081;-69
2023/06/07 03:41:28;;;;;;;13.70;8.05;;;;;;;14.08;100.00;101926.13;5272309;28;20032;-69
2023/06/07 03:43:59;;;;;;;13.02;8.48;;;;;;;14.19;100.00;101925.16;5270750;28;20032;-69
2023/06/07 03:46:31;;;;;;;15.10;8.90;;;;;;;14.13;100.00;101915.84;5268806;28;20310;-69
2023/06/07 03:49:02;;;;;;;15.07;8.75;;;;;;;14.06;100.00;101916.50;5275494;28;20025;-70
2023/06/07 03:51:37;;;;;;;16.13;9.60;;;;;;;14.06;100.00;101917.38;5269256;28;20115;-69
2023/06/07 03:54:09;;;;;;;17.17;8.50;;;;;;;13.97;100.00;101927.13;5283574;28;20034;-69
2023/06/07 03:56:41;;;;;;;14.25;9.10;;;;;;;14.08;100.00;101925.31;5281863;28;20519;-69
2023/06/07 03:59:13;;;;;;;15.00;7.75;;;;;;;14.15;100.00;101924.59;5280200;28;20028;-69
2023/06/07 04:01:44;;;;;;;13.38;8.32;;;;;;;14.06;100.00;101928.13;5276449;28;20032;-70
2023/06/07 04:04:15;;;;;;;15.07;8.10;;;;;;;14.11;100.00;101925.88;5272613;28;20082;-69
2023/06/07 04:06:48;;;;;;;15.70;8.95;;;;;;;14.13;100.00;101921.22;5277936;28;20034;-69
2023/06/07 04:09:20;;;;;;;15.63;9.02;;;;;;;14.06;100.00;101928.13;5276663;28;21766;-69
2023/06/07 04:11:52;;;;;;;14.45;7.38;;;;;;;14.10;100.00;101928.69;5276561;28;20035;-70
2023/06/07 04:14:23;;;;;;;19.67;8.50;;;;;;;14.06;100.00;101935.28;5278145;28;20023;-69
2023/06/07 04:16:54;;;;;;;14.07;7.47;;;;;;;14.04;100.00;101926.53;5275659;28;20436;-69
2023/06/07 04:19:26;;;;;;;12.27;8.05;;;;;;;14.07;100.00;101929.78;5274205;28;20624;-69
2023/06/07 04:21:58;;;;;;;13.50;8.25;;;;;;;14.03;100.00;101924.88;5277887;28;20506;-69
2023/06/07 04:24:31;;;;;;;13.68;8.18;;;;;;;14.02;100.00;101926.69;5272241;28;20032;-70
2023/06/07 04:27:02;;;;;;;14.93;8.70;;;;;;;13.97;100.00;101929.78;5266097;28;20389;-69
2023/06/07 04:29:37;;;;;;;15.95;8.68;;;;;;;13.98;100.00;101922.59;5274430;28;20032;-69
2023/06/07 04:32:09;;;;;;;14.50;7.88;;;;;;;14.00;100.00;101921.44;5272592;28;20024;-69
2023/06/07 04:34:41;;;;;;;12.23;7.65;;;;;;;14.11;100.00;101930.38;5273820;28;20035;-69
2023/06/07 04:37:13;;;;;;;15.85;8.70;;;;;;;14.13;100.00;101923.88;5267514;28;20035;-69
2023/06/07 04:39:48;;;;;;;14.15;8.43;;;;;;;14.24;100.00;101928.28;5271739;28;20548;-70
2023/06/07 04:42:20;;;;;;;15.10;7.57;;;;;;;14.30;100.00;101925.00;5275122;28;20433;-69
2023/06/07 04:44:52;;;;;;;14.05;7.65;;;;;;;14.14;100.00;101916.69;5270095;28;20072;-69
2023/06/07 04:47:24;;;;;;;12.23;7.93;;;;;;;14.23;100.00;101918.50;5266921;28;20043;-69
2023/06/07 04:49:56;;;;;;;14.57;8.13;;;;;;;14.13;100.00;101931.94;5272008;28;20051;-69
2023/06/07 04:52:28;;;;;;;16.38;8.63;;;;;;;14.26;100.00;101942.41;5268351;28;20036;-68
2023/06/07 04:55:00;;;;;;;15.25;8.52;;;;;;;14.23;100.00;101939.13;5270990;28;20032;-69
2023/06/07 04:57:32;;;;;;;15.18;8.20;;;;;;;14.17;100.00;101933.34;5269163;28;20033;-69
2023/06/07 05:00:06;;;;;;;10.77;7.78;;;;;;;14.14;100.00;101932.78;5267353;28;20075;-69
2023/06/07 05:02:44;;;;;;;14.02;7.90;;;;;;;14.19;100.00;101933.22;5276763;28;20409;-70
2023/06/07 05:05:15;;;;;;;11.30;7.82;;;;;;;14.14;100.00;101936.31;5272066;28;20032;-69
2023/06/07 05:07:49;;;;;;;14.95;8.85;;;;;;;14.18;100.00;101936.88;5277174;28;20465;-69
2023/06/07 05:10:20;;;;;;;17.15;7.75;;;;;;;14.20;100.00;101940.28;5265597;28;20107;-69
2023/06/07 05:12:51;;;;;;;10.48;7.93;;;;;;;14.23;100.00;101945.34;5275641;28;20030;-72
2023/06/07 05:15:23;;;;;;;14.80;7.82;;;;;;;14.26;100.00;101937.03;5270977;28;20149;-72
2023/06/07 05:17:54;;;;;;;17.83;8.55;;;;;;;14.23;100.00;101934.63;5274830;28;20506;-72
2023/06/07 05:20:26;;;;;;;14.73;7.60;;;;;;;14.30;100.00;101937.59;5268596;28;21626;-72
2023/06/07 05:22:57;;;;;;;13.48;7.43;;;;;;;14.32;100.00;101947.22;5266848;28;20501;-72
2023/06/07 05:25:29;;;;;;;15.18;8.60;;;;;;;14.25;100.00;101948.72;5272413;28;20649;-72
2023/06/07 05:28:00;;;;;;;17.67;8.57;;;;;;;14.33;100.00;101954.25;5265996;28;20031;-72
2023/06/07 05:30:32;;;;;;;13.15;7.55;;;;;;;14.32;100.00;101952.59;5264303;28;20028;-72
2023/06/07 05:33:05;;;;;;;16.48;7.60;;;;;;;14.48;100.00;101945.78;5266591;28;20086;-72
2023/06/07 05:35:36;;;;;;;17.25;8.57;;;;;;;14.45;100.00;101952.28;5267938;28;20135;-72
2023/06/07 05:38:08;;;;;;;16.10;8.23;;;;;;;14.56;100.00;101948.63;5263857;28;20032;-72
2023/06/07 05:40:39;;;;;;;17.17;8.52;;;;;;;14.55;100.00;101946.91;5270262;28;20429;-72
2023/06/07 05:43:11;;;;;;;13.70;8.32;;;;;;;14.61;100.00;101957.13;5272751;28;20448;-72
2023/06/07 05:45:42;;;;;;;16.00;8.80;;;;;;;14.60;100.00;101955.44;5274287;28;20036;-72
2023/06/07 05:48:13;;;;;;;13.45;8.25;;;;;;;14.64;100.00;101955.97;5266901;28;20611;-72
2023/06/07 05:50:45;;;;;;;15.15;8.38;;;;;;;14.75;100.00;101958.53;5265206;28;20468;-72
2023/06/07 05:53:16;;;;;;;16.42;8.05;;;;;;;14.77;100.00;101955.72;5270132;28;20024;-72
2023/06/07 05:55:48;;;;;;;15.20;7.90;;;;;;;14.79;100.00;101961.78;5265652;28;20596;-72
2023/06/07 05:58:19;;;;;;;13.77;8.55;;;;;;;14.75;100.00;101956.69;5269144;28;20094;-73
2023/06/07 06:00:51;;;;;;;15.57;8.13;;;;;;;14.91;100.00;101969.53;5269395;28;20165;-74
2023/06/07 06:03:22;;;;;;;14.40;8.32;;;;;;;14.97;100.00;101967.28;5263664;28;20522;-71
2023/06/07 06:05:56;;;;;;;14.18;8.00;;;;;;;15.01;100.00;101966.00;5268186;28;20029;-72
2023/06/07 06:08:27;;;;;;;13.40;7.80;;;;;;;15.15;100.00;101965.56;5265656;28;20027;-71
2023/06/07 06:10:58;;;;;;;16.38;8.40;;;;;;;15.26;100.00;101973.44;5274797;28;20505;-72
2023/06/07 06:13:31;;;;;;;14.30;8.18;;;;;;;15.27;100.00;101971.56;5267505;28;20032;-72
2023/06/07 06:16:02;;;;;;;17.05;8.32;;;;;;;15.23;100.00;101972.88;5268519;28;20028;-72
2023/06/07 06:18:34;;;;;;;15.23;7.97;;;;;;;15.36;100.00;101969.84;5274442;28;20032;-72
2023/06/07 06:21:05;;;;;;;15.02;8.32;;;;;;;15.30;100.00;101965.91;5263497;28;20115;-72
2023/06/07 06:23:36;;;;;;;14.60;7.85;;;;;;;15.39;100.00;101975.81;5267690;28;20033;-72
2023/06/07 06:26:08;;;;;;;15.45;8.40;;;;;;;15.47;100.00;101969.69;5268771;28;20430;-72
2023/06/07 06:28:39;;;;;;;18.27;8.23;;;;;;;15.44;100.00;101980.72;5269738;28;20437;-72
2023/06/07 06:31:11;;;;;;;12.13;7.65;;;;;;;15.56;100.00;101976.88;5271805;28;20028;-73
2023/06/07 06:33:42;;;;;;;16.27;8.32;;;;;;;15.51;100.00;101979.16;5271143;28;20036;-72
2023/06/07 06:36:13;;;;;;;14.70;8.32;;;;;;;15.76;100.00;101983.06;5265724;28;20278;-74
2023/06/07 06:38:45;;;;;;;17.92;8.52;;;;;;;15.71;100.00;101988.00;5271412;28;20120;-73
2023/06/07 06:41:16;;;;;;;13.63;8.05;;;;;;;15.78;100.00;101983.75;5271067;28;20034;-73
2023/06/07 06:43:47;;;;;;;14.02;7.97;;;;;;;15.84;100.00;101985.84;5267340;28;20108;-73
2023/06/07 06:46:19;;;;;;;17.48;8.65;;;;;;;15.88;100.00;101981.88;5271695;28;20075;-72
2023/06/07 06:48:50;;;;;;;17.38;8.40;;;;;;;15.77;100.00;101981.22;5272291;28;20025;-73
2023/06/07 06:51:21;;;;;;;12.43;8.23;;;;;;;15.83;100.00;101986.84;5269047;28;20436;-74
2023/06/07 06:53:53;;;;;;;12.85;7.75;;;;;;;15.78;100.00;101993.69;5273769;28;20028;-73
2023/06/07 06:56:25;;;;;;;17.42;7.82;;;;;;;15.80;100.00;101997.91;5277989;28;20478;-74
2023/06/07 06:58:57;;;;;;;15.55;7.90;;;;;;;15.85;100.00;101998.31;5272576;28;20032;-73
2023/06/07 07:01:58;;;;;;;18.20;8.88;;;;;;;16.05;100.00;101995.50;5268509;28;20672;-74
2023/06/07 07:04:31;;;;;;;13.23;7.45;;;;;;;15.98;100.00;102002.47;5265227;28;20406;-73
2023/06/07 07:07:02;;;;;;;14.50;7.93;;;;;;;16.03;100.00;102005.56;5270106;28;20035;-73
2023/06/07 07:09:33;;;;;;;14.90;8.00;;;;;;;16.16;100.00;102011.44;5274168;28;20024;-73
2023/06/07 07:12:06;;;;;;;21.70;8.18;;;;;;;16.41;100.00;102015.25;5270069;28;20025;-73
2023/06/07 07:14:37;;;;;;;14.43;7.63;;;;;;;16.55;100.00;102004.94;5272067;28;20075;-73
2023/06/07 07:17:09;;;;;;;14.35;7.43;;;;;;;16.60;100.00;101998.09;5272185;28;20038;-73
2023/06/07 07:19:40;;;;;;;11.60;7.20;;;;;;;16.83;100.00;102003.03;5272190;28;20111;-74
2023/06/07 07:22:11;;;;;;;12.32;7.28;;;;;;;16.93;100.00;102011.88;5275736;28;20035;-73
2023/06/07 07:24:43;;;;;;;14.27;7.53;;;;;;;17.10;100.00;102009.31;5270532;28;20428;-73
2023/06/07 07:27:14;;;;;;;17.13;8.20;;;;;;;17.11;100.00;102009.19;5267389;28;20057;-74
2023/06/07 07:29:46;;;;;;;15.15;7.57;;;;;;;17.21;100.00;102011.75;5278318;28;20097;-73
2023/06/07 07:32:18;;;;;;;12.70;7.00;;;;;;;17.27;100.00;102012.97;5269068;28;20033;-73
2023/06/07 07:34:49;;;;;;;14.50;7.53;;;;;;;17.34;100.00;102017.59;5276679;28;20095;-73
2023/06/07 07:37:20;;;;;;;14.85;7.50;;;;;;;17.57;100.00;102017.06;5273313;28;20070;-73
2023/06/07 07:39:52;;;;;;;15.95;7.38;;;;;;;17.51;100.00;102013.16;5271604;28;20461;-73
2023/06/07 07:42:23;;;;;;;14.73;7.78;;;;;;;17.57;100.00;102011.66;5272569;28;20028;-72
2023/06/07 07:44:54;;;;;;;14.35;6.97;;;;;;;17.54;100.00;102004.72;5272349;28;20032;-73
2023/06/07 07:47:26;;;;;;;19.52;7.00;;;;;;;17.92;100.00;102009.84;5268759;28;20467;-72
2023/06/07 07:49:57;;;;;;;12.95;7.18;;;;;;;17.88;100.00;102013.84;5275237;28;20028;-72
2023/06/07 07:52:28;;;;;;;17.92;7.60;;;;;;;17.90;100.00;102017.22;5274319;28;20510;-72
2023/06/07 07:55:00;;;;;;;13.90;7.05;;;;;;;18.00;100.00;102023.34;5276401;28;20019;-72
2023/06/07 07:57:31;;;;;;;14.27;7.47;;;;;;;17.97;100.00;102021.00;5273896;28;20087;-73
2023/06/07 08:00:05;;;;;;;16.00;7.68;;;;;;;18.32;100.00;102030.72;5271211;28;20020;-73
2023/06/07 08:02:36;;;;;;;16.88;7.72;;;;;;;18.44;100.00;102031.25;5277189;28;20043;-73
2023/06/07 08:05:08;;;;;;;12.43;6.57;;;;;;;18.53;100.00;102021.31;5285454;28;20382;-73
2023/06/07 08:07:40;;;;;;;12.30;7.50;;;;;;;18.58;100.00;102024.34;5277313;28;20051;-73
2023/06/07 08:10:11;;;;;;;14.93;6.75;;;;;;;18.89;100.00;102016.47;5267122;28;20571;-73
2023/06/07 08:12:42;;;;;;;14.32;7.28;;;;;;;19.47;100.00;102021.81;5267170;28;20024;-73
2023/06/07 08:15:13;;;;;;;14.88;7.03;;;;;;;19.99;100.00;102013.19;5271896;28;20123;-73
2023/06/07 08:17:45;;;;;;;12.73;6.78;;;;;;;20.50;100.00;102018.16;5267341;28;20043;-73
2023/06/07 08:20:16;;;;;;;13.07;6.32;;;;;;;20.98;100.00;102018.00;5275547;28;20071;-73
2023/06/07 08:22:50;;;;;;;13.63;6.07;;;;;;;21.48;100.00;102011.09;5268330;28;20431;-73
2023/06/07 08:25:22;;;;;;;13.75;6.38;;;;;;;21.55;100.00;102011.19;5272220;28;20054;-73
2023/06/07 08:27:53;;;;;;;10.23;6.00;;;;;;;21.94;100.00;102010.03;5276446;28;20481;-73
2023/06/07 08:30:25;;;;;;;16.85;6.00;;;;;;;22.00;100.00;102011.16;5275002;28;20034;-73
2023/06/07 08:32:56;;;;;;;11.43;6.60;;;;;;;22.16;100.00;102010.09;5265650;28;20024;-72
2023/06/07 08:35:28;;;;;;;16.48;6.45;;;;;;;22.03;100.00;102008.91;5271596;28;20028;-73
2023/06/07 08:38:00;;;;;;;17.33;6.18;;;;;;;22.06;100.00;102004.97;5269907;28;20037;-73
2023/06/07 08:40:32;;;;;;;17.23;6.63;;;;;;;22.36;100.00;102007.63;5276087;28;20031;-72
2023/06/07 08:43:03;;;;;;;11.38;5.88;;;;;;;22.99;100.00;101999.66;5268399;28;20078;-73
2023/06/07 08:45:35;;;;;;;14.95;6.85;;;;;;;23.20;100.00;101996.06;5269426;28;20090;-72
2023/06/07 08:48:11;;;;;;;12.07;6.43;;;;;;;23.42;100.00;101999.56;5277337;28;20852;-73
2023/06/07 08:50:45;;;;;;;13.43;6.38;;;;;;;23.82;100.00;102009.88;5266716;28;20145;-73
2023/06/07 08:53:27;;;;;;;14.25;6.10;;;;;;;24.27;100.00;102008.38;5269673;28;20024;-72
2023/06/07 08:55:59;;;;;;;10.82;5.90;;;;;;;24.31;100.00;102000.59;5272674;28;20042;-72
2023/06/07 08:58:31;;;;;;;11.82;6.57;;;;;;;24.33;100.00;102015.72;5267033;28;20034;-72
2023/06/07 09:01:02;;;;;;;13.02;5.93;;;;;;;24.77;100.00;102012.66;5270922;28;20032;-72
2023/06/07 09:03:33;;;;;;;11.68;5.47;;;;;;;25.21;100.00;102003.00;5270154;28;20390;-72
2023/06/07 09:06:05;;;;;;;11.48;6.57;;;;;;;25.39;100.00;102000.50;5272707;28;20035;-72
2023/06/07 09:08:36;;;;;;;14.18;5.57;;;;;;;25.30;100.00;102004.50;5265807;28;20040;-72
2023/06/07 09:11:07;;;;;;;13.32;5.95;;;;;;;25.23;100.00;101996.28;5273737;28;20039;-72
2023/06/07 09:13:39;;;;;;;12.23;5.90;;;;;;;24.99;100.00;102005.97;5268530;28;20113;-72
2023/06/07 09:16:11;;;;;;;14.57;5.80;;;;;;;25.10;100.00;102002.63;5274628;28;20024;-72
2023/06/07 09:18:44;;;;;;;14.32;5.88;;;;;;;25.47;100.00;102007.59;5267273;28;20058;-72
2023/06/07 09:21:29;;;;;;;8.55;6.22;;;;;;;25.79;100.00;102005.84;5270936;28;20400;-72
2023/06/07 09:24:00;;;;;;;15.88;6.15;;;;;;;25.54;100.00;102002.13;5276356;28;20429;-72
2023/06/07 09:26:38;;;;;;;13.43;6.55;;;;;;;25.44;100.00;102006.16;5272723;28;20035;-72
2023/06/07 09:29:10;;;;;;;16.20;6.30;;;;;;;25.34;100.00;102002.19;5270749;28;20067;-72
2023/06/07 09:31:41;;;;;;;12.18;5.68;;;;;;;25.21;100.00;102005.72;5275361;28;20475;-72
2023/06/07 09:34:22;;;;;;;11.85;6.13;;;;;;;25.07;100.00;102002.16;5280079;28;20547;-72
2023/06/07 09:36:56;;;;;;;11.70;6.60;;;;;;;24.69;100.00;102011.81;5273267;28;20032;-72
2023/06/07 09:39:29;;;;;;;9.63;6.28;;;;;;;24.53;100.00;102006.75;5268812;28;20081;-73
2023/06/07 09:42:01;;;;;;;11.85;6.28;;;;;;;24.49;100.00;101997.28;5274145;28;20032;-72
2023/06/07 09:44:33;;;;;;;16.00;6.78;;;;;;;24.25;100.00;101996.81;5277229;28;20055;-72
2023/06/07 09:47:05;;;;;;;14.63;7.72;;;;;;;24.42;100.00;101997.28;5279087;28;20025;-72
2023/06/07 09:49:37;;;;;;;11.02;6.75;;;;;;;24.55;100.00;101992.94;5267172;28;20036;-72
2023/06/07 09:52:16;;;;;;;10.82;6.75;;;;;;;24.87;100.00;101994.00;5281827;28;20093;-72
2023/06/07 09:54:48;;;;;;;13.98;7.80;;;;;;;24.72;100.00;101995.06;5274008;28;20586;-72
2023/06/07 09:57:25;;;;;;;13.13;6.47;;;;;;;25.11;100.00;102003.44;5268323;28;20556;-72
2023/06/07 09:59:58;;;;;;;11.20;6.20;;;;;;;25.14;100.00;101996.72;5271556;28;20036;-72
2023/06/07 10:02:30;;;;;;;14.48;7.00;;;;;;;25.54;100.00;102013.06;5276690;28;20032;-74
2023/06/07 10:05:01;;;;;;;12.70;6.43;;;;;;;25.44;100.00;102002.59;5276210;28;20115;-72
2023/06/07 10:07:36;;;;;;;12.98;6.53;;;;;;;25.61;100.00;102002.94;5275269;28;20107;-72
2023/06/07 10:10:12;;;;;;;11.52;6.40;;;;;;;25.58;100.00;102000.63;5280518;28;20077;-72
2023/06/07 10:12:46;;;;;;;15.07;6.70;;;;;;;25.67;100.00;101996.63;5280683;28;20080;-72
2023/06/07 10:15:22;;;;;;;14.45;7.28;;;;;;;25.43;100.00;101990.81;5269531;28;20063;-72
2023/06/07 10:18:17;;;;;;;12.18;6.70;;;;;;;25.10;100.00;101988.97;5274039;28;20388;-74
2023/06/07 10:21:02;;;;;;;11.23;7.03;;;;;;;25.06;100.00;101984.13;5277827;28;20511;-72
2023/06/07 10:23:38;;;;;;;9.32;7.13;;;;;;;24.51;100.00;101995.22;5268435;28;20436;-72
2023/06/07 10:26:31;;;;;;;13.15;6.63;;;;;;;24.62;100.00;101996.50;5264804;28;20117;-71
2023/06/07 10:29:08;;;;;;;12.10;6.72;;;;;;;24.19;100.00;101994.91;5270283;28;20028;-72
2023/06/07 10:31:52;;;;;;;13.43;7.47;;;;;;;23.87;100.00;101999.22;5268738;28;20448;-72
2023/06/07 10:34:25;;;;;;;15.48;6.47;;;;;;;23.76;100.00;101992.44;5276898;28;20054;-72
2023/06/07 10:36:58;;;;;;;16.33;7.05;;;;;;;23.68;100.00;101992.59;5278699;28;20067;-71
2023/06/07 10:39:30;;;;;;;13.63;6.93;;;;;;;23.56;100.00;101997.75;5277712;28;20024;-72
2023/06/07 10:42:01;;;;;;;14.45;7.00;;;;;;;23.69;100.00;101997.00;5276407;28;20043;-72
2023/06/07 10:44:35;;;;;;;13.10;7.97;;;;;;;23.36;100.00;101990.31;5278107;28;20024;-71
2023/06/07 10:47:21;;;;;;;17.13;8.70;;;;;;;23.50;100.00;101991.25;5270493;28;20032;-72
2023/06/07 10:49:53;;;;;;;16.40;7.85;;;;;;;23.14;100.00;101981.38;5277430;28;20107;-72
2023/06/07 10:52:26;;;;;;;15.02;7.22;;;;;;;23.15;100.00;101977.63;5268842;28;20171;-72
2023/06/07 10:54:57;;;;;;;15.57;7.50;;;;;;;22.95;100.00;101987.47;5278178;28;20428;-72
2023/06/07 10:57:32;;;;;;;15.40;7.20;;;;;;;23.19;100.00;101986.22;5266009;28;20051;-72
2023/06/07 11:00:26;;;;;;;16.90;7.30;;;;;;;23.28;100.00;101982.31;5275178;28;20060;-72
2023/06/07 11:03:09;;;;;;;15.73;7.30;;;;;;;23.03;100.00;101987.31;5267444;28;20519;-71
2023/06/07 11:06:01;;;;;;;13.80;7.90;;;;;;;23.13;100.00;101984.31;5271988;28;20207;-72
2023/06/07 11:08:36;;;;;;;13.05;8.00;;;;;;;22.82;100.00;101986.31;5270999;28;20089;-72
2023/06/07 11:11:38;;;;;;;12.02;7.18;;;;;;;22.94;100.00;101983.91;5263759;28;20028;-72
2023/06/07 11:14:11;;;;;;;16.17;8.00;;;;;;;22.62;100.00;101979.88;5272459;28;20020;-72
2023/06/07 11:16:42;;;;;;;17.50;7.63;;;;;;;22.73;100.00;101982.06;5275302;28;20457;-72
2023/06/07 11:19:16;;;;;;;15.38;7.22;;;;;;;22.64;100.00;101985.97;5282338;28;20026;-72
2023/06/07 11:21:54;;;;;;;13.35;7.68;;;;;;;22.63;100.00;101978.81;5272402;28;20028;-73
2023/06/07 11:24:26;;;;;;;13.95;7.88;;;;;;;22.45;100.00;101971.13;5276204;28;20043;-72
2023/06/07 11:26:57;;;;;;;13.70;7.25;;;;;;;22.57;100.00;101966.88;5278074;28;20024;-72
2023/06/07 11:29:30;;;;;;;17.75;8.70;;;;;;;22.57;100.00;101971.47;5275202;28;20012;-72
2023/06/07 11:32:02;;;;;;;13.43;7.32;;;;;;;22.50;100.00;101968.69;5276512;28;20039;-72
2023/06/07 11:34:33;;;;;;;12.32;7.82;;;;;;;22.63;100.00;101966.09;5273673;28;20028;-73